createdAt,value
2023-04-02T16:05:01.587Z,78.99
2023-04-02T16:10:01.553Z,83.28
2023-04-02T16:15:01.489Z,89.84
2023-04-02T16:20:02.421Z,94.86
2023-04-02T16:25:01.358Z,101.05
2023-04-02T16:30:01.310Z,108.24
2023-04-02T16:35:15.221Z,118.34
2023-04-02T16:40:02.232Z,128.23
2023-04-02T16:45:01.034Z,137.53
2023-04-02T16:50:01.902Z,148.42
2023-04-02T16:55:00.996Z,156.98
2023-04-02T17:00:00.858Z,165.28
2023-04-02T17:05:00.828Z,172.90
2023-04-02T17:10:00.763Z,181.45
2023-04-02T17:15:00.708Z,188.15
2023-04-02T17:20:00.661Z,197.79
2023-04-02T17:25:00.545Z,207.57
2023-04-02T17:30:00.665Z,217.08
2023-04-02T17:35:00.416Z,226.10
2023-04-02T17:40:00.396Z,232.60
2023-04-02T17:45:00.265Z,239.48
2023-04-02T17:50:00.228Z,245.14
2023-04-02T17:55:00.164Z,251.08
2023-04-02T18:00:00.202Z,256.71
2023-04-02T18:05:00.017Z,263.86
2023-04-02T18:09:59.973Z,275.47
2023-04-02T18:14:59.887Z,284.20
2023-04-02T18:19:59.853Z,290.42
2023-04-02T18:24:59.782Z,293.76
2023-04-02T18:29:59.708Z,295.33
2023-04-02T18:34:59.630Z,295.59
2023-04-02T18:39:59.557Z,292.72
2023-04-02T18:44:59.533Z,290.93
2023-04-02T18:49:59.442Z,285.91
2023-04-02T18:54:59.396Z,285.18
2023-04-02T18:59:59.345Z,283.71
2023-04-02T19:04:59.264Z,283.95
2023-04-02T19:09:59.195Z,278.01
2023-04-02T19:14:59.095Z,281.55
2023-04-02T19:19:59.038Z,283.47
2023-04-02T19:24:59.025Z,287.90
2023-04-02T19:29:58.913Z,292.21
2023-04-02T19:34:58.895Z,298.52
2023-04-02T19:39:58.808Z,303.71
2023-04-02T19:44:58.712Z,305.67
2023-04-02T19:49:58.698Z,306.23
2023-04-02T19:54:58.580Z,304.55
2023-04-02T19:59:58.542Z,308.51
2023-04-02T20:04:58.439Z,309.08
2023-04-02T20:09:59.376Z,315.25
2023-04-02T20:14:58.335Z,322.29
2023-04-02T20:19:58.259Z,326.42
2023-04-02T20:24:58.174Z,327.71
2023-04-02T20:29:58.122Z,332.63
2023-04-02T20:34:58.034Z,340.48
2023-04-02T20:39:57.989Z,347.26
2023-04-02T20:44:57.939Z,349.08
2023-04-02T20:49:57.922Z,355.06
2023-04-02T20:54:57.800Z,366.83
2023-04-02T20:59:57.730Z,379.05
2023-04-02T21:04:57.690Z,378.41
2023-04-02T21:09:57.751Z,378.41
2023-04-02T21:14:57.869Z,370.52
2023-04-02T21:19:57.476Z,368.87
2023-04-02T21:24:57.389Z,364.82
2023-04-02T21:29:57.356Z,365.62
2023-04-02T21:34:57.394Z,361.24
2023-04-02T21:39:57.218Z,357.35
2023-04-02T21:44:57.120Z,352.79
2023-04-02T21:49:57.082Z,348.71
2023-04-02T21:54:56.980Z,344.37
2023-04-02T21:59:57.913Z,346.17
2023-04-02T22:04:56.864Z,343.66
2023-04-02T22:09:56.803Z,341.54
2023-04-02T22:14:56.759Z,341.54
2023-04-02T22:19:56.712Z,340.14
2023-04-02T22:24:56.609Z,339.79
2023-04-02T22:29:56.528Z,340.14
2023-04-02T22:34:56.457Z,340.83
2023-04-02T22:39:56.379Z,346.89
2023-04-02T22:44:56.484Z,346.53
2023-04-02T22:49:56.276Z,349.82
2023-04-02T22:54:56.202Z,352.79
2023-04-02T22:59:56.144Z,353.92
2023-04-02T23:04:56.082Z,355.06
2023-04-02T23:09:56.905Z,355.82
2023-04-02T23:14:55.968Z,358.12
2023-04-02T23:19:55.887Z,357.35
2023-04-02T23:24:56.591Z,356.20
2023-04-02T23:29:55.764Z,358.12
2023-04-02T23:34:55.681Z,356.58
2023-04-02T23:39:55.607Z,358.51
2023-04-02T23:44:55.563Z,357.74
2023-04-02T23:49:55.492Z,360.85
2023-04-02T23:54:55.382Z,366.02
2023-04-02T23:59:55.381Z,365.62
